createdAt,value
2023-09-03T00:00:58.806Z,7.32
2023-09-03T00:03:26.514Z,7.90
2023-09-03T00:05:58.072Z,9.60
2023-09-03T00:08:28.506Z,8.25
2023-09-03T00:10:56.468Z,7.88
2023-09-03T00:13:24.236Z,9.63
2023-09-03T00:15:52.349Z,7.60
2023-09-03T00:18:20.614Z,8.10
2023-09-03T00:20:57.035Z,7.63
2023-09-03T00:23:25.200Z,8.13
2023-09-03T00:25:53.368Z,8.57
2023-09-03T00:28:21.595Z,8.00
2023-09-03T00:31:03.359Z,8.43
2023-09-03T00:33:31.947Z,10.57
2023-09-03T00:36:02.516Z,8.52
2023-09-03T00:38:30.504Z,8.23
2023-09-03T00:40:58.904Z,8.82
2023-09-03T00:43:28.757Z,7.70
2023-09-03T00:45:56.761Z,9.02
2023-09-03T00:48:28.294Z,9.15
2023-09-03T00:51:03.329Z,7.75
2023-09-03T00:53:34.762Z,9.13
2023-09-03T00:56:03.192Z,8.40
2023-09-03T00:58:31.587Z,7.95
2023-09-03T01:00:59.904Z,11.68
2023-09-03T01:03:28.147Z,7.20
2023-09-03T01:05:56.232Z,7.43
2023-09-03T01:08:24.906Z,7.63
2023-09-03T01:11:29.894Z,8.65
2023-09-03T01:14:01.723Z,8.43
2023-09-03T01:16:34.800Z,7.93
2023-09-03T01:19:10.366Z,9.52
2023-09-03T01:21:56.312Z,7.67
2023-09-03T01:24:36.007Z,9.50
2023-09-03T01:27:18.635Z,7.95
2023-09-03T01:29:47.323Z,8.95
2023-09-03T01:32:15.940Z,8.00
2023-09-03T01:34:45.393Z,8.17
2023-09-03T01:37:14.190Z,7.63
2023-09-03T01:39:41.853Z,7.85
2023-09-03T01:42:09.541Z,8.20
2023-09-03T01:44:37.858Z,9.35
2023-09-03T01:47:31.519Z,8.80
2023-09-03T01:50:50.889Z,8.52
2023-09-03T01:53:27.487Z,9.63
2023-09-03T01:55:58.753Z,11.60
2023-09-03T01:58:31.572Z,8.10
2023-09-03T02:01:02.228Z,7.53
2023-09-03T02:03:31.614Z,7.80
2023-09-03T02:05:59.356Z,15.10
2023-09-03T02:08:27.036Z,9.57
2023-09-03T02:10:54.815Z,7.85
2023-09-03T02:13:23.000Z,9.53
2023-09-03T02:15:51.562Z,7.93
2023-09-03T02:18:19.985Z,8.05
2023-09-03T02:20:48.288Z,8.23
2023-09-03T02:23:17.452Z,7.70
2023-09-03T02:25:47.966Z,10.80
2023-09-03T02:28:16.059Z,15.57
2023-09-03T02:30:44.038Z,8.93
2023-09-03T02:33:12.027Z,9.45
2023-09-03T02:35:39.929Z,10.80
2023-09-03T02:38:07.836Z,8.67
2023-09-03T02:40:35.884Z,8.73
2023-09-03T02:43:05.902Z,8.50
2023-09-03T02:45:33.802Z,8.40
2023-09-03T02:48:02.639Z,8.43
2023-09-03T02:50:30.593Z,13.73
2023-09-03T02:52:58.689Z,8.45
2023-09-03T02:55:26.684Z,8.85
2023-09-03T02:57:54.614Z,10.02
2023-09-03T03:00:24.564Z,9.25
2023-09-03T03:02:53.678Z,8.90
2023-09-03T03:05:21.677Z,9.32
2023-09-03T03:07:49.609Z,9.02
2023-09-03T03:10:18.650Z,9.13
2023-09-03T03:12:46.583Z,11.15
2023-09-03T03:15:14.676Z,9.43
2023-09-03T03:17:42.545Z,9.35
2023-09-03T03:20:10.912Z,10.50
2023-09-03T03:22:38.505Z,8.25
2023-09-03T03:25:06.787Z,9.68
2023-09-03T03:27:35.747Z,9.63
2023-09-03T03:30:03.719Z,10.93
2023-09-03T03:32:32.494Z,10.27
2023-09-03T03:35:00.378Z,9.10
2023-09-03T03:37:28.043Z,10.43
2023-09-03T03:39:55.783Z,10.17
2023-09-03T03:42:23.479Z,9.25
2023-09-03T03:44:51.109Z,10.73
2023-09-03T03:47:18.729Z,8.30
2023-09-03T03:49:46.380Z,10.38
2023-09-03T03:52:14.080Z,9.00
2023-09-03T03:54:41.760Z,9.15
2023-09-03T03:57:09.410Z,8.05
2023-09-03T03:59:37.807Z,8.63
2023-09-03T04:02:05.690Z,9.40
2023-09-03T04:04:33.402Z,7.80
2023-09-03T04:07:01.041Z,9.23
2023-09-03T04:09:28.611Z,8.45
2023-09-03T04:11:57.826Z,9.13
2023-09-03T04:14:25.502Z,9.45
2023-09-03T04:16:53.387Z,10.07
2023-09-03T04:19:21.362Z,8.85
2023-09-03T04:21:49.368Z,8.38
2023-09-03T04:24:17.282Z,9.23
2023-09-03T04:26:45.277Z,10.05
2023-09-03T04:29:13.282Z,8.37
2023-09-03T04:31:41.876Z,8.07
2023-09-03T04:34:10.187Z,8.52
2023-09-03T04:36:38.040Z,9.38
2023-09-03T04:39:06.395Z,8.38
2023-09-03T04:41:34.531Z,7.93
2023-09-03T04:44:10.306Z,9.43
2023-09-03T04:46:38.640Z,9.85
2023-09-03T04:49:06.532Z,8.60
2023-09-03T04:51:36.329Z,8.18
2023-09-03T04:54:04.574Z,11.40
2023-09-03T04:56:32.510Z,8.77
2023-09-03T04:59:00.419Z,9.63
2023-09-03T05:01:28.575Z,10.52
2023-09-03T05:03:56.515Z,9.60
2023-09-03T05:06:26.893Z,12.07
2023-09-03T05:08:54.742Z,9.82
2023-09-03T05:11:22.669Z,8.40
2023-09-03T05:13:50.659Z,10.13
2023-09-03T05:16:18.893Z,9.05
2023-09-03T05:18:46.893Z,11.17
2023-09-03T05:21:14.976Z,8.60
2023-09-03T05:23:47.910Z,9.25
2023-09-03T05:26:15.919Z,6.13
2023-09-03T05:28:43.836Z,6.18
2023-09-03T05:31:11.914Z,6.27
2023-09-03T05:33:41.025Z,6.85
2023-09-03T05:36:12.448Z,6.35
2023-09-03T05:38:44.401Z,7.90
2023-09-03T05:41:14.282Z,6.43
2023-09-03T05:43:42.175Z,6.43
2023-09-03T05:46:10.279Z,6.05
2023-09-03T05:48:38.431Z,6.32
2023-09-03T05:51:06.868Z,6.50
2023-09-03T05:53:35.260Z,7.47
2023-09-03T05:56:10.743Z,6.43
2023-09-03T05:58:39.624Z,7.45
2023-09-03T06:01:10.080Z,7.05
2023-09-03T06:03:39.888Z,5.50
2023-09-03T06:06:12.141Z,6.72
2023-09-03T06:08:40.152Z,6.93
2023-09-03T06:11:09.636Z,6.15
2023-09-03T06:13:38.270Z,7.82
2023-09-03T06:16:06.167Z,5.70
2023-09-03T06:18:34.194Z,5.55
2023-09-03T06:21:02.303Z,6.37
2023-09-03T06:23:30.156Z,5.68
2023-09-03T06:25:58.121Z,6.70
2023-09-03T06:28:29.558Z,6.20
2023-09-03T06:31:02.705Z,5.13
2023-09-03T06:33:31.935Z,5.60
2023-09-03T06:35:59.801Z,5.90
2023-09-03T06:38:27.736Z,5.82
2023-09-03T06:40:55.575Z,6.28
2023-09-03T06:43:23.459Z,7.03
2023-09-03T06:45:51.408Z,5.80
2023-09-03T06:48:19.968Z,7.53
2023-09-03T06:50:49.664Z,6.95
2023-09-03T06:53:17.683Z,8.32
2023-09-03T06:55:49.064Z,6.57
2023-09-03T06:58:17.019Z,7.10
2023-09-03T07:00:46.282Z,5.85
2023-09-03T07:03:16.055Z,6.30
2023-09-03T07:05:43.983Z,5.70
2023-09-03T07:08:11.933Z,6.45
2023-09-03T07:10:39.713Z,6.20
2023-09-03T07:13:09.990Z,5.82
2023-09-03T07:15:38.054Z,5.95
2023-09-03T07:18:06.307Z,6.35
2023-09-03T07:20:34.062Z,5.88
2023-09-03T07:23:01.945Z,6.20
2023-09-03T07:25:36.577Z,5.93
2023-09-03T07:28:04.714Z,5.80
2023-09-03T07:30:32.718Z,6.25
2023-09-03T07:33:00.445Z,6.00
2023-09-03T07:35:32.197Z,6.60
2023-09-03T07:37:59.964Z,6.47
2023-09-03T07:40:28.818Z,6.35
2023-09-03T07:42:56.471Z,6.05
2023-09-03T07:45:24.555Z,6.43
2023-09-03T07:47:52.466Z,7.93
2023-09-03T07:50:20.193Z,7.05
2023-09-03T07:52:47.810Z,6.10
2023-09-03T07:55:17.159Z,6.20
2023-09-03T07:57:45.034Z,6.15
2023-09-03T08:00:14.195Z,5.77
2023-09-03T08:02:41.994Z,6.15
2023-09-03T08:05:13.245Z,5.50
2023-09-03T08:07:41.012Z,5.45
2023-09-03T08:10:09.296Z,6.65
2023-09-03T08:12:37.004Z,5.53
2023-09-03T08:15:04.943Z,5.95
2023-09-03T08:17:33.882Z,7.55
2023-09-03T08:20:03.874Z,6.88
2023-09-03T08:22:32.989Z,5.90
2023-09-03T08:25:00.619Z,6.33
2023-09-03T08:27:28.214Z,6.20
2023-09-03T08:29:55.910Z,5.50
2023-09-03T08:32:24.041Z,5.72
2023-09-03T08:34:53.272Z,7.15
2023-09-03T08:37:21.310Z,5.70
2023-09-03T08:39:49.053Z,6.40
2023-09-03T08:42:17.156Z,5.57
2023-09-03T08:44:50.848Z,5.70
2023-09-03T08:47:18.923Z,5.95
2023-09-03T08:49:47.108Z,6.43
2023-09-03T08:52:17.376Z,6.38
2023-09-03T08:54:45.168Z,5.75
2023-09-03T08:57:13.487Z,6.63
2023-09-03T08:59:41.580Z,7.03
2023-09-03T09:02:14.256Z,6.30
2023-09-03T09:04:42.280Z,6.25
2023-09-03T09:07:11.270Z,5.75
2023-09-03T09:09:39.685Z,5.82
2023-09-03T09:12:29.712Z,5.70
2023-09-03T09:15:03.272Z,7.73
2023-09-03T09:17:38.295Z,7.47
2023-09-03T09:20:10.796Z,7.40
2023-09-03T09:22:43.157Z,6.10
2023-09-03T09:25:18.843Z,11.48
2023-09-03T09:27:47.850Z,8.57
2023-09-03T09:30:20.678Z,7.25
2023-09-03T09:32:49.273Z,7.07
2023-09-03T09:35:26.768Z,5.53
2023-09-03T09:37:54.440Z,8.48
2023-09-03T09:40:31.624Z,6.17
2023-09-03T09:43:02.280Z,5.97
2023-09-03T09:45:30.037Z,8.35
2023-09-03T09:48:08.711Z,7.38
2023-09-03T09:50:44.295Z,6.13
2023-09-03T09:53:28.492Z,8.67
2023-09-03T09:56:04.496Z,8.23
2023-09-03T09:58:39.957Z,7.15
2023-09-03T10:01:09.977Z,5.47
2023-09-03T10:03:50.951Z,5.40
2023-09-03T10:06:22.034Z,5.97
2023-09-03T10:08:52.989Z,6.00
2023-09-03T10:11:21.757Z,5.85
2023-09-03T10:13:50.484Z,6.10
2023-09-03T10:16:22.876Z,6.32
2023-09-03T10:18:52.057Z,5.83
2023-09-03T10:21:46.609Z,5.53
2023-09-03T10:24:20.591Z,6.57
2023-09-03T10:26:54.374Z,5.65
2023-09-03T10:29:24.897Z,6.97
2023-09-03T10:31:54.848Z,7.20
2023-09-03T10:34:23.008Z,7.90
2023-09-03T10:37:06.999Z,5.78
2023-09-03T10:39:36.544Z,6.63
2023-09-03T10:42:16.808Z,6.20
2023-09-03T10:44:55.758Z,5.50
2023-09-03T10:47:24.059Z,6.97
2023-09-03T10:49:53.837Z,5.78
2023-09-03T10:52:28.536Z,6.57
2023-09-03T10:55:17.469Z,5.85
2023-09-03T10:57:47.484Z,7.07
2023-09-03T11:00:18.336Z,7.45
2023-09-03T11:02:50.274Z,8.35
2023-09-03T11:05:27.939Z,6.07
2023-09-03T11:08:31.027Z,5.97
2023-09-03T11:11:00.567Z,6.40
2023-09-03T11:13:38.226Z,6.95
2023-09-03T11:16:07.003Z,6.50
2023-09-03T11:18:35.230Z,6.43
2023-09-03T11:21:03.389Z,7.70
2023-09-03T11:23:35.163Z,6.10
2023-09-03T11:26:07.308Z,6.35
2023-09-03T11:28:38.625Z,5.80
2023-09-03T11:31:06.750Z,5.88
2023-09-03T11:33:34.965Z,6.07
2023-09-03T11:36:02.950Z,5.57
2023-09-03T11:38:31.931Z,5.30
2023-09-03T11:41:00.585Z,5.50
2023-09-03T11:43:30.672Z,6.05
2023-09-03T11:46:05.371Z,6.10
2023-09-03T11:48:33.931Z,6.13
2023-09-03T11:51:21.860Z,5.63
2023-09-03T11:53:50.805Z,5.50
2023-09-03T11:56:21.898Z,5.53
2023-09-03T11:58:54.194Z,5.60
2023-09-03T12:01:22.476Z,6.30
2023-09-03T12:03:50.900Z,5.47
2023-09-03T12:06:19.791Z,5.68
2023-09-03T12:08:47.765Z,5.20
2023-09-03T12:11:15.865Z,6.15
2023-09-03T12:13:45.745Z,5.57
2023-09-03T12:16:17.353Z,5.95
2023-09-03T12:18:59.807Z,5.20
2023-09-03T12:21:38.339Z,5.25
2023-09-03T12:24:08.137Z,5.20
2023-09-03T12:26:37.438Z,6.30
2023-09-03T12:29:19.212Z,5.80
2023-09-03T12:31:47.380Z,5.22
2023-09-03T12:34:36.054Z,6.45
2023-09-03T12:37:05.258Z,5.82
2023-09-03T12:39:43.427Z,5.20
2023-09-03T12:42:12.089Z,5.22
2023-09-03T12:44:44.351Z,5.90
2023-09-03T12:47:12.431Z,5.30
2023-09-03T12:49:40.326Z,5.60
2023-09-03T12:52:08.211Z,5.67
2023-09-03T12:54:36.206Z,5.32
2023-09-03T12:57:04.097Z,5.43
2023-09-03T12:59:32.034Z,6.47
2023-09-03T13:01:59.970Z,5.00
2023-09-03T13:04:27.884Z,5.47
2023-09-03T13:06:55.665Z,5.20
2023-09-03T13:09:23.498Z,5.10
2023-09-03T13:11:51.488Z,5.03
2023-09-03T13:14:19.337Z,5.25
2023-09-03T13:16:47.256Z,6.87
2023-09-03T13:19:15.001Z,5.10
2023-09-03T13:21:42.747Z,4.90
2023-09-03T13:24:10.536Z,5.88
2023-09-03T13:26:38.513Z,5.55
2023-09-03T13:29:06.182Z,4.93
2023-09-03T13:31:34.091Z,5.10
2023-09-03T13:34:04.535Z,5.07
2023-09-03T13:36:32.327Z,5.70
2023-09-03T13:39:00.755Z,5.65
2023-09-03T13:41:28.648Z,5.57
2023-09-03T13:43:59.597Z,6.45
2023-09-03T13:46:27.928Z,5.32
2023-09-03T13:48:56.594Z,4.95
2023-09-03T13:51:24.286Z,6.45
2023-09-03T13:53:54.868Z,5.70
2023-09-03T13:56:22.576Z,5.90
2023-09-03T13:58:50.279Z,7.43
2023-09-03T14:01:19.383Z,10.13
2023-09-03T14:03:49.043Z,7.05
2023-09-03T14:06:17.916Z,5.37
2023-09-03T14:08:45.621Z,6.32
2023-09-03T14:11:13.369Z,6.75
2023-09-03T14:13:41.174Z,5.97
2023-09-03T14:16:15.536Z,6.65
2023-09-03T14:18:44.136Z,7.00
2023-09-03T14:21:11.777Z,6.97
2023-09-03T14:23:39.421Z,6.18
2023-09-03T14:26:14.056Z,5.45
2023-09-03T14:28:41.771Z,5.35
2023-09-03T14:31:09.397Z,5.13
2023-09-03T14:33:37.285Z,4.70
2023-09-03T14:36:05.289Z,4.90
2023-09-03T14:38:32.879Z,5.05
2023-09-03T14:41:00.564Z,4.50
2023-09-03T14:43:34.540Z,6.33
2023-09-03T14:46:02.747Z,5.38
2023-09-03T14:48:30.547Z,5.10
2023-09-03T14:50:58.697Z,5.05
2023-09-03T14:53:26.336Z,8.77
2023-09-03T14:55:53.973Z,10.33
2023-09-03T14:58:24.884Z,6.80
2023-09-03T15:00:52.694Z,6.82
2023-09-03T15:03:20.390Z,7.18
2023-09-03T15:05:48.220Z,5.85
2023-09-03T15:08:16.278Z,5.30
2023-09-03T15:10:43.951Z,5.90
2023-09-03T15:13:21.663Z,6.28
2023-09-03T15:15:51.564Z,6.28
2023-09-03T15:18:29.332Z,9.05
2023-09-03T15:20:57.359Z,10.70
2023-09-03T15:23:26.097Z,8.30
2023-09-03T15:25:54.299Z,6.88
2023-09-03T15:28:23.260Z,10.68
2023-09-03T15:30:52.025Z,6.20
2023-09-03T15:33:20.205Z,7.40
2023-09-03T15:35:48.158Z,7.65
2023-09-03T15:38:17.288Z,6.57
2023-09-03T15:40:45.292Z,8.95
2023-09-03T15:43:13.434Z,6.97
2023-09-03T15:45:41.896Z,6.93
2023-09-03T15:48:10.490Z,6.22
2023-09-03T15:50:42.844Z,6.88
2023-09-03T15:53:11.737Z,7.53
2023-09-03T15:55:41.067Z,6.88
2023-09-03T15:58:09.720Z,6.17
2023-09-03T16:00:39.809Z,7.13
2023-09-03T16:03:09.003Z,7.20
2023-09-03T16:05:37.018Z,6.80
2023-09-03T16:08:05.187Z,6.20
2023-09-03T16:10:38.461Z,6.37
2023-09-03T16:13:08.562Z,7.15
2023-09-03T16:15:44.156Z,8.60
2023-09-03T16:18:17.246Z,8.90
2023-09-03T16:20:45.187Z,7.47
2023-09-03T16:23:12.798Z,7.83
2023-09-03T16:25:40.487Z,8.00
2023-09-03T16:28:08.326Z,7.13
2023-09-03T16:30:36.041Z,7.68
2023-09-03T16:33:03.928Z,8.55
2023-09-03T16:35:33.847Z,7.63
2023-09-03T16:38:01.509Z,7.57
2023-09-03T16:40:32.254Z,11.25
2023-09-03T16:43:02.476Z,10.15
2023-09-03T16:45:30.093Z,8.07
2023-09-03T16:47:57.734Z,7.27
2023-09-03T16:50:25.347Z,7.03
2023-09-03T16:52:53.007Z,7.47
2023-09-03T16:55:20.607Z,8.98
2023-09-03T16:57:48.213Z,10.15
2023-09-03T17:00:15.977Z,8.43
2023-09-03T17:02:43.742Z,10.32
2023-09-03T17:05:11.415Z,9.02
2023-09-03T17:07:39.596Z,8.77
2023-09-03T17:10:08.692Z,9.63
2023-09-03T17:12:36.491Z,7.37
2023-09-03T17:15:04.332Z,8.05
2023-09-03T17:17:33.300Z,8.10
2023-09-03T17:20:01.564Z,7.97
2023-09-03T17:22:31.333Z,9.50
2023-09-03T17:24:58.915Z,8.90
2023-09-03T17:27:26.540Z,8.27
2023-09-03T17:29:55.667Z,9.10
2023-09-03T17:32:23.360Z,9.88
2023-09-03T17:34:52.959Z,9.35
2023-09-03T17:37:21.189Z,8.30
2023-09-03T17:39:48.783Z,9.52
2023-09-03T17:42:17.976Z,8.73
2023-09-03T17:44:46.677Z,9.73
2023-09-03T17:47:14.316Z,7.95
2023-09-03T17:49:42.294Z,9.67
2023-09-03T17:52:09.931Z,10.63
2023-09-03T17:54:37.579Z,7.88
2023-09-03T17:57:06.608Z,8.27
2023-09-03T17:59:34.312Z,9.85
2023-09-03T18:02:05.816Z,8.37
2023-09-03T18:04:36.739Z,9.25
2023-09-03T18:07:04.782Z,7.63
2023-09-03T18:09:32.604Z,9.63
2023-09-03T18:12:00.585Z,11.85
2023-09-03T18:14:28.790Z,9.00
2023-09-03T18:16:56.684Z,10.85
2023-09-03T18:19:24.350Z,9.07
2023-09-03T18:21:52.097Z,8.13
2023-09-03T18:24:20.012Z,8.88
2023-09-03T18:26:47.705Z,8.07
2023-09-03T18:29:15.352Z,7.18
2023-09-03T18:31:42.997Z,9.18
2023-09-03T18:34:10.611Z,8.45
2023-09-03T18:36:38.314Z,8.25
2023-09-03T18:39:06.248Z,8.53
2023-09-03T18:41:33.856Z,8.77
2023-09-03T18:44:01.466Z,8.90
2023-09-03T18:46:29.263Z,7.88
2023-09-03T18:48:57.536Z,8.43
2023-09-03T18:51:25.146Z,10.43
2023-09-03T18:53:52.796Z,8.40
2023-09-03T18:56:20.555Z,8.10
2023-09-03T18:58:48.194Z,8.00
2023-09-03T19:01:18.514Z,7.85
2023-09-03T19:03:48.851Z,8.03
2023-09-03T19:06:20.416Z,7.30
2023-09-03T19:08:48.534Z,6.90
2023-09-03T19:11:16.261Z,7.22
2023-09-03T19:13:43.911Z,7.40
2023-09-03T19:16:21.496Z,6.73
2023-09-03T19:18:49.867Z,7.40
2023-09-03T19:21:17.808Z,7.05
2023-09-03T19:23:45.608Z,7.53
2023-09-03T19:26:14.582Z,7.57
2023-09-03T19:28:43.001Z,8.90
2023-09-03T19:31:11.297Z,8.40
2023-09-03T19:33:39.321Z,7.45
2023-09-03T19:36:07.387Z,6.88
2023-09-03T19:38:35.923Z,7.85
2023-09-03T19:41:03.895Z,8.43
2023-09-03T19:43:31.789Z,7.95
2023-09-03T19:46:01.630Z,8.98
2023-09-03T19:48:35.356Z,8.30
2023-09-03T19:51:03.855Z,8.50
2023-09-03T19:53:33.082Z,7.87
2023-09-03T19:56:12.272Z,9.55
2023-09-03T19:58:40.310Z,8.82
2023-09-03T20:01:08.469Z,8.73
2023-09-03T20:03:36.573Z,7.45
2023-09-03T20:06:04.695Z,7.50
2023-09-03T20:08:33.281Z,8.95
2023-09-03T20:11:06.130Z,7.95
2023-09-03T20:13:34.303Z,7.80
2023-09-03T20:16:03.892Z,7.45
2023-09-03T20:18:32.112Z,9.17
2023-09-03T20:21:01.281Z,8.25
2023-09-03T20:23:29.740Z,7.95
2023-09-03T20:26:02.732Z,7.38
2023-09-03T20:28:45.178Z,9.88
2023-09-03T20:31:15.964Z,7.90
2023-09-03T20:33:44.511Z,8.88
2023-09-03T20:36:12.816Z,9.02
2023-09-03T20:38:41.636Z,7.80
2023-09-03T20:41:09.678Z,8.43
2023-09-03T20:43:37.397Z,6.77
2023-09-03T20:46:05.047Z,9.15
2023-09-03T20:48:33.711Z,8.30
2023-09-03T20:51:02.903Z,9.90
2023-09-03T20:53:31.665Z,10.98
2023-09-03T20:56:00.425Z,7.60
2023-09-03T20:58:28.820Z,8.25
2023-09-03T21:00:56.631Z,8.90
2023-09-03T21:03:24.498Z,8.10
2023-09-03T21:05:53.455Z,8.35
2023-09-03T21:08:23.615Z,9.30
2023-09-03T21:10:58.845Z,8.60
2023-09-03T21:13:27.202Z,8.35
2023-09-03T21:15:56.889Z,8.20
2023-09-03T21:18:26.702Z,7.30
2023-09-03T21:20:59.973Z,7.10
2023-09-03T21:23:28.118Z,6.85
2023-09-03T21:25:56.032Z,7.05
2023-09-03T21:28:24.282Z,9.30
2023-09-03T21:30:52.411Z,9.07
2023-09-03T21:33:20.527Z,6.97
2023-09-03T21:35:48.594Z,7.38
2023-09-03T21:38:16.494Z,7.43
2023-09-03T21:40:44.591Z,6.97
2023-09-03T21:43:12.512Z,8.55
2023-09-03T21:45:40.662Z,7.37
2023-09-03T21:48:08.881Z,6.80
2023-09-03T21:50:36.830Z,7.35
2023-09-03T21:53:05.123Z,6.75
2023-09-03T21:55:33.200Z,7.75
2023-09-03T21:58:01.124Z,6.83
2023-09-03T22:00:29.023Z,7.97
2023-09-03T22:02:57.010Z,8.25
2023-09-03T22:05:25.165Z,7.90
2023-09-03T22:07:53.111Z,7.28
2023-09-03T22:10:20.980Z,9.67
2023-09-03T22:12:48.817Z,7.75
2023-09-03T22:15:16.657Z,9.63
2023-09-03T22:17:44.438Z,9.05
2023-09-03T22:20:12.833Z,8.98
2023-09-03T22:22:40.462Z,9.07
2023-09-03T22:25:08.311Z,8.32
2023-09-03T22:27:35.993Z,8.95
2023-09-03T22:30:04.505Z,9.20
2023-09-03T22:32:34.015Z,8.43
2023-09-03T22:35:01.894Z,8.90
2023-09-03T22:37:33.216Z,9.02
2023-09-03T22:40:01.800Z,8.02
2023-09-03T22:42:31.464Z,9.30
2023-09-03T22:44:59.126Z,9.18
2023-09-03T22:47:29.824Z,7.57
2023-09-03T22:49:57.502Z,8.02
2023-09-03T22:52:25.157Z,8.27
2023-09-03T22:54:52.950Z,9.85
2023-09-03T22:57:20.600Z,8.30
2023-09-03T22:59:48.159Z,9.63
2023-09-03T23:02:15.917Z,8.60
2023-09-03T23:04:43.753Z,9.18
2023-09-03T23:07:11.460Z,9.80
2023-09-03T23:09:39.057Z,8.88
2023-09-03T23:12:06.865Z,9.13
2023-09-03T23:14:34.613Z,9.68
2023-09-03T23:17:02.467Z,9.82
2023-09-03T23:19:30.175Z,10.00
2023-09-03T23:21:57.911Z,11.07
2023-09-03T23:24:25.516Z,10.27
2023-09-03T23:26:53.144Z,9.88
2023-09-03T23:29:20.886Z,7.03
2023-09-03T23:31:48.636Z,9.07
2023-09-03T23:34:17.332Z,8.93
2023-09-03T23:36:45.151Z,8.40
2023-09-03T23:39:12.767Z,7.68
2023-09-03T23:41:40.410Z,9.05
2023-09-03T23:44:08.274Z,9.68
2023-09-03T23:46:35.996Z,9.15
2023-09-03T23:49:03.755Z,7.30
2023-09-03T23:51:34.460Z,7.32
2023-09-03T23:54:05.253Z,7.20
2023-09-03T23:56:33.206Z,7.72
2023-09-03T23:59:00.857Z,8.88
